Time;durP1;ratioP1;P1;durP2;ratioP2;P2;SDS_P1;SDS_P2;PMS_P1;PMS_P2;Temp;Humidity;BMP_temperature;BMP_pressure;BME280_temperature;BME280_humidity;BME280_pressure;Samples;Min_cycle;Max_cycle;Signal;HPM_P1;HPM_P2
2021/09/22 00:00:23;;;;;;;25.17;17.73;;;;;;;;;;5114268;27;20509;-81
2021/09/22 00:02:49;;;;;;;22.48;16.88;;;;;;;;;;5118324;27;20039;-81
2021/09/22 00:05:16;;;;;;;28.85;19.48;;;;;;;;;;5131455;27;20437;-81
2021/09/22 00:07:42;;;;;;;20.20;15.80;;;;;;;;;;5090982;27;20043;-80
2021/09/22 00:10:10;;;;;;;21.58;17.83;;;;;;;;;;5122844;27;20125;-81
2021/09/22 00:12:36;;;;;;;20.80;16.38;;;;;;;;;;5128298;27;20049;-79
2021/09/22 00:15:05;;;;;;;19.83;15.35;;;;;;;;;;5090450;27;20494;-81
2021/09/22 00:17:32;;;;;;;19.55;15.50;;;;;;;;;;5129496;27;20039;-82
2021/09/22 00:19:58;;;;;;;20.23;15.13;;;;;;;;;;5124771;27;20038;-82
2021/09/22 00:22:24;;;;;;;22.63;15.45;;;;;;;;;;5115456;27;20095;-81
2021/09/22 00:24:50;;;;;;;18.75;15.00;;;;;;;;;;5119407;27;20175;-80
2021/09/22 00:27:16;;;;;;;28.05;16.00;;;;;;;;;;5122506;27;20085;-81
2021/09/22 00:29:43;;;;;;;20.80;14.20;;;;;;;;;;5103567;27;20042;-81
2021/09/22 00:32:09;;;;;;;20.08;15.80;;;;;;;;;;5130151;27;20058;-80
2021/09/22 00:34:35;;;;;;;25.13;17.35;;;;;;;;;;5125359;27;20480;-81
2021/09/22 00:37:04;;;;;;;18.13;15.00;;;;;;;;;;5125053;27;20043;-81
2021/09/22 00:39:31;;;;;;;19.90;15.35;;;;;;;;;;5117109;27;20046;-81
2021/09/22 00:41:57;;;;;;;20.00;15.18;;;;;;;;;;5114336;27;20051;-82
2021/09/22 00:44:23;;;;;;;18.23;13.70;;;;;;;;;;5125501;27;20039;-81
2021/09/22 00:46:49;;;;;;;18.33;14.20;;;;;;;;;;5121417;27;20039;-81
2021/09/22 00:49:15;;;;;;;19.48;14.38;;;;;;;;;;5106987;27;20481;-81
2021/09/22 00:51:41;;;;;;;17.08;14.23;;;;;;;;;;5123377;27;20375;-82
2021/09/22 00:54:07;;;;;;;18.08;12.35;;;;;;;;;;5105788;27;20042;-83
2021/09/22 00:56:33;;;;;;;19.38;15.05;;;;;;;;;;5120761;27;20054;-82
2021/09/22 00:58:59;;;;;;;19.13;13.13;;;;;;;;;;5117854;27;20042;-82
2021/09/22 01:01:25;;;;;;;18.83;13.52;;;;;;;;;;5108461;27;20082;-83
2021/09/22 01:03:52;;;;;;;17.95;14.40;;;;;;;;;;5105484;27;20070;-81
2021/09/22 01:06:18;;;;;;;22.83;15.43;;;;;;;;;;5112879;27;20038;-82
2021/09/22 01:08:44;;;;;;;21.40;15.38;;;;;;;;;;5110824;27;20049;-82
2021/09/22 01:11:10;;;;;;;20.58;14.50;;;;;;;;;;5113525;27;20084;-82
2021/09/22 01:13:36;;;;;;;21.27;15.40;;;;;;;;;;5102478;27;20065;-81
2021/09/22 01:16:02;;;;;;;17.38;14.10;;;;;;;;;;5119112;27;20038;-81
2021/09/22 01:18:28;;;;;;;16.27;13.52;;;;;;;;;;5121012;27;20049;-82
2021/09/22 01:20:56;;;;;;;18.13;15.43;;;;;;;;;;5110784;27;20039;-81
2021/09/22 01:23:23;;;;;;;18.55;14.93;;;;;;;;;;5127015;27;20042;-81
2021/09/22 01:25:50;;;;;;;17.02;12.80;;;;;;;;;;5127192;27;20050;-81
2021/09/22 01:28:17;;;;;;;17.67;14.85;;;;;;;;;;5126184;27;20053;-83
2021/09/22 01:30:43;;;;;;;17.30;13.38;;;;;;;;;;5126502;27;20041;-82
2021/09/22 01:33:11;;;;;;;17.75;13.50;;;;;;;;;;5108690;27;20144;-82
2021/09/22 01:35:39;;;;;;;17.48;14.27;;;;;;;;;;5115520;27;20111;-82
2021/09/22 01:38:06;;;;;;;20.48;15.77;;;;;;;;;;5115339;27;20074;-82
2021/09/22 01:40:32;;;;;;;18.05;13.40;;;;;;;;;;5104596;27;20043;-81
2021/09/22 01:42:58;;;;;;;16.73;13.60;;;;;;;;;;5120719;27;20513;-82
2021/09/22 01:45:24;;;;;;;16.95;13.40;;;;;;;;;;5105895;27;20040;-81
2021/09/22 01:47:50;;;;;;;14.77;13.18;;;;;;;;;;5116191;27;20049;-79
2021/09/22 01:50:18;;;;;;;18.67;13.45;;;;;;;;;;5132041;27;20046;-82
2021/09/22 01:52:45;;;;;;;18.58;14.18;;;;;;;;;;5120450;27;20121;-82
2021/09/22 01:55:14;;;;;;;16.85;13.35;;;;;;;;;;5112344;27;20100;-83
2021/09/22 01:57:40;;;;;;;16.38;13.50;;;;;;;;;;5108672;27;20088;-82
2021/09/22 02:00:07;;;;;;;18.65;13.27;;;;;;;;;;5114323;27;20123;-82
2021/09/22 02:02:33;;;;;;;17.58;12.23;;;;;;;;;;5104917;27;20447;-83
2021/09/22 02:04:59;;;;;;;15.75;11.95;;;;;;;;;;5100535;27;20043;-80
2021/09/22 02:07:26;;;;;;;18.58;13.18;;;;;;;;;;5125663;27;20034;-82
2021/09/22 02:09:52;;;;;;;16.13;13.68;;;;;;;;;;5085304;27;20046;-79
2021/09/22 02:12:18;;;;;;;14.93;12.00;;;;;;;;;;5113097;27;20165;-83
2021/09/22 02:14:44;;;;;;;19.25;12.88;;;;;;;;;;5104465;27;20141;-83
2021/09/22 02:17:10;;;;;;;14.88;12.60;;;;;;;;;;5119694;27;20047;-82
2021/09/22 02:19:36;;;;;;;15.65;13.07;;;;;;;;;;5109304;27;20043;-83
2021/09/22 02:22:03;;;;;;;15.30;13.43;;;;;;;;;;5103270;27;20074;-82
2021/09/22 02:24:29;;;;;;;15.82;13.82;;;;;;;;;;5126165;27;20453;-82
2021/09/22 02:26:55;;;;;;;18.77;14.70;;;;;;;;;;5093274;27;20104;-82
2021/09/22 02:29:21;;;;;;;20.42;15.02;;;;;;;;;;5119891;27;20122;-82
2021/09/22 02:31:48;;;;;;;22.42;15.70;;;;;;;;;;5117127;27;20081;-80
2021/09/22 02:34:14;;;;;;;19.25;14.38;;;;;;;;;;5122867;27;20134;-82
2021/09/22 02:36:41;;;;;;;18.30;15.18;;;;;;;;;;5105101;27;20078;-82
2021/09/22 02:39:07;;;;;;;17.02;14.70;;;;;;;;;;5106486;27;20046;-85
2021/09/22 02:41:33;;;;;;;25.02;17.75;;;;;;;;;;5122951;27;20092;-82
2021/09/22 02:44:00;;;;;;;29.90;16.95;;;;;;;;;;5122522;27;20125;-81
2021/09/22 02:46:27;;;;;;;32.50;18.00;;;;;;;;;;5121937;27;20112;-81
2021/09/22 02:48:53;;;;;;;27.63;17.98;;;;;;;;;;5129067;27;20362;-81
2021/09/22 02:51:19;;;;;;;72.75;25.48;;;;;;;;;;5104411;27;20122;-81
2021/09/22 02:53:45;;;;;;;59.40;23.02;;;;;;;;;;5126987;27;20388;-82
2021/09/22 02:56:11;;;;;;;84.90;24.80;;;;;;;;;;5116113;27;20381;-82
2021/09/22 02:58:37;;;;;;;70.70;24.08;;;;;;;;;;5126287;27;20121;-83
2021/09/22 03:01:04;;;;;;;70.07;27.17;;;;;;;;;;5112553;27;20047;-79
2021/09/22 03:03:31;;;;;;;42.88;23.55;;;;;;;;;;5106811;27;20461;-82
2021/09/22 03:05:57;;;;;;;56.40;25.67;;;;;;;;;;5112100;27;20046;-81
2021/09/22 03:08:23;;;;;;;50.47;27.77;;;;;;;;;;5091470;27;20434;-81
2021/09/22 03:10:49;;;;;;;42.97;26.42;;;;;;;;;;5102299;27;20473;-81
2021/09/22 03:13:16;;;;;;;57.40;27.27;;;;;;;;;;5116195;27;20215;-82
2021/09/22 03:15:42;;;;;;;44.75;27.48;;;;;;;;;;5122456;27;20054;-82
2021/09/22 03:18:08;;;;;;;51.42;28.85;;;;;;;;;;5105738;27;20046;-82
2021/09/22 03:20:34;;;;;;;40.88;26.02;;;;;;;;;;5124300;27;20054;-81
2021/09/22 03:23:00;;;;;;;37.97;27.08;;;;;;;;;;5125533;27;20110;-81
2021/09/22 03:25:26;;;;;;;42.97;27.88;;;;;;;;;;5119234;27;20515;-81
2021/09/22 03:27:52;;;;;;;32.47;24.83;;;;;;;;;;5112215;27;20046;-81
2021/09/22 03:30:18;;;;;;;39.25;26.85;;;;;;;;;;5121007;27;20486;-81
2021/09/22 03:32:44;;;;;;;39.20;28.13;;;;;;;;;;5128365;27;20047;-81
2021/09/22 03:35:10;;;;;;;27.60;21.95;;;;;;;;;;5103169;27;20065;-82
2021/09/22 03:37:36;;;;;;;25.50;21.92;;;;;;;;;;5126633;27;20042;-82
2021/09/22 03:40:03;;;;;;;27.42;21.58;;;;;;;;;;5102810;27;20038;-80
2021/09/22 03:42:29;;;;;;;24.02;20.75;;;;;;;;;;5125940;27;20034;-80
2021/09/22 03:44:55;;;;;;;23.73;21.05;;;;;;;;;;5127925;27;20129;-81
2021/09/22 03:47:21;;;;;;;26.60;21.30;;;;;;;;;;5123518;27;20068;-81
2021/09/22 03:49:47;;;;;;;23.08;20.25;;;;;;;;;;5110168;27;20039;-81
2021/09/22 03:52:13;;;;;;;23.25;20.33;;;;;;;;;;5114643;27;20038;-82
2021/09/22 03:54:39;;;;;;;23.48;19.27;;;;;;;;;;5130315;27;20501;-82
2021/09/22 03:57:06;;;;;;;27.00;22.10;;;;;;;;;;5113142;27;20386;-82
2021/09/22 03:59:32;;;;;;;30.60;22.27;;;;;;;;;;5115679;27;20049;-83
2021/09/22 04:01:58;;;;;;;28.23;21.30;;;;;;;;;;5106923;27;20049;-82
2021/09/22 04:04:24;;;;;;;28.38;22.52;;;;;;;;;;5118528;27;20068;-81
2021/09/22 04:06:50;;;;;;;37.78;25.92;;;;;;;;;;5112980;27;20359;-82
2021/09/22 04:09:16;;;;;;;33.17;24.80;;;;;;;;;;5109787;27;20100;-82
2021/09/22 04:11:42;;;;;;;30.67;24.17;;;;;;;;;;5104614;27;20050;-82
2021/09/22 04:14:08;;;;;;;36.17;27.67;;;;;;;;;;5113014;27;20043;-82
2021/09/22 04:16:34;;;;;;;38.58;28.88;;;;;;;;;;5107305;27;20444;-82
2021/09/22 04:19:01;;;;;;;52.83;32.47;;;;;;;;;;5126835;27;20096;-79
2021/09/22 04:21:27;;;;;;;70.85;38.85;;;;;;;;;;5131751;27;20123;-82
2021/09/22 04:23:53;;;;;;;61.92;37.65;;;;;;;;;;5104518;27;20054;-80
2021/09/22 04:26:19;;;;;;;66.00;40.25;;;;;;;;;;5118709;27;20039;-81
2021/09/22 04:28:45;;;;;;;96.95;47.28;;;;;;;;;;5095155;27;20134;-81
2021/09/22 04:31:11;;;;;;;87.75;45.45;;;;;;;;;;5110897;27;20037;-82
2021/09/22 04:33:37;;;;;;;104.22;48.20;;;;;;;;;;5115155;27;20493;-82
2021/09/22 04:36:03;;;;;;;95.82;45.17;;;;;;;;;;5122371;27;20459;-82
2021/09/22 04:38:29;;;;;;;101.85;48.92;;;;;;;;;;5106182;27;20079;-80
2021/09/22 04:40:55;;;;;;;80.75;43.75;;;;;;;;;;5117627;27;20047;-81
2021/09/22 04:43:21;;;;;;;96.97;49.05;;;;;;;;;;5096434;27;20561;-82
2021/09/22 04:45:47;;;;;;;65.95;39.58;;;;;;;;;;5119907;27;20126;-81
2021/09/22 04:48:14;;;;;;;72.68;39.65;;;;;;;;;;5126694;27;20039;-87
2021/09/22 04:50:41;;;;;;;64.82;38.67;;;;;;;;;;5111887;27;20038;-80
2021/09/22 04:53:07;;;;;;;63.63;39.30;;;;;;;;;;5124663;27;20043;-88
2021/09/22 04:55:33;;;;;;;49.97;35.45;;;;;;;;;;5120549;27;20106;-82
2021/09/22 04:57:59;;;;;;;68.20;40.00;;;;;;;;;;5125897;27;20093;-83
2021/09/22 05:00:25;;;;;;;61.55;37.53;;;;;;;;;;5110112;27;20156;-83
2021/09/22 05:02:51;;;;;;;71.10;40.38;;;;;;;;;;5132257;27;20504;-81
2021/09/22 05:05:17;;;;;;;65.88;38.28;;;;;;;;;;5128778;27;20385;-86
2021/09/22 05:07:43;;;;;;;51.25;34.92;;;;;;;;;;5121448;27;20054;-87
2021/09/22 05:10:09;;;;;;;65.13;37.20;;;;;;;;;;5106686;27;20038;-84
2021/09/22 05:12:36;;;;;;;61.88;38.47;;;;;;;;;;5115337;27;20047;-84
2021/09/22 05:15:02;;;;;;;55.65;34.65;;;;;;;;;;5093143;27;20055;-84
2021/09/22 05:17:28;;;;;;;58.58;37.67;;;;;;;;;;5085932;27;20057;-84
2021/09/22 05:19:54;;;;;;;48.47;31.92;;;;;;;;;;5092595;27;20118;-83
2021/09/22 05:22:20;;;;;;;72.68;39.38;;;;;;;;;;5100935;27;20484;-82
2021/09/22 05:24:46;;;;;;;57.45;36.05;;;;;;;;;;5120337;27;20038;-84
2021/09/22 05:27:12;;;;;;;46.75;33.22;;;;;;;;;;5120502;27;20046;-84
2021/09/22 05:29:38;;;;;;;68.55;37.08;;;;;;;;;;5130057;27;20060;-84
2021/09/22 05:32:05;;;;;;;46.55;32.03;;;;;;;;;;5121990;27;20031;-83
2021/09/22 05:34:31;;;;;;;50.30;34.53;;;;;;;;;;5096550;27;20034;-83
2021/09/22 05:36:57;;;;;;;69.63;39.15;;;;;;;;;;5103821;27;20542;-83
2021/09/22 05:39:23;;;;;;;56.88;35.63;;;;;;;;;;5123042;27;20123;-81
2021/09/22 05:41:49;;;;;;;71.53;39.25;;;;;;;;;;5127541;27;20384;-85
2021/09/22 05:44:15;;;;;;;73.85;39.97;;;;;;;;;;5127120;27;20056;-88
2021/09/22 05:46:42;;;;;;;77.78;37.90;;;;;;;;;;5116954;27;20081;-84
2021/09/22 05:49:08;;;;;;;78.88;38.55;;;;;;;;;;5101325;27;20043;-81
2021/09/22 05:51:34;;;;;;;78.07;37.25;;;;;;;;;;5133259;27;20543;-81
2021/09/22 05:54:00;;;;;;;64.60;34.40;;;;;;;;;;5109324;27;20053;-81
2021/09/22 05:56:27;;;;;;;73.40;37.30;;;;;;;;;;5121019;27;20079;-80
2021/09/22 05:58:53;;;;;;;100.35;42.80;;;;;;;;;;5105203;27;20051;-81
2021/09/22 06:01:19;;;;;;;84.22;39.00;;;;;;;;;;5106667;27;20043;-80
2021/09/22 06:03:45;;;;;;;93.93;41.47;;;;;;;;;;5096670;27;20064;-81
2021/09/22 06:06:11;;;;;;;116.57;43.35;;;;;;;;;;5107270;27;20035;-80
2021/09/22 06:08:37;;;;;;;62.85;32.83;;;;;;;;;;5101225;27;20095;-80
2021/09/22 06:11:04;;;;;;;81.80;38.30;;;;;;;;;;5105638;27;20139;-81
2021/09/22 06:13:31;;;;;;;66.53;37.75;;;;;;;;;;5126117;27;20099;-79
2021/09/22 06:15:57;;;;;;;86.38;39.17;;;;;;;;;;5105837;27;20082;-77
2021/09/22 06:18:23;;;;;;;65.03;35.83;;;;;;;;;;5121854;27;20609;-77
2021/09/22 06:20:49;;;;;;;62.65;34.85;;;;;;;;;;5104052;27;20092;-77
2021/09/22 06:23:15;;;;;;;48.63;31.20;;;;;;;;;;5124806;27;20130;-77
2021/09/22 06:25:41;;;;;;;56.58;34.70;;;;;;;;;;5121308;27;20049;-77
2021/09/22 06:28:07;;;;;;;47.95;30.58;;;;;;;;;;5124274;27;20505;-78
2021/09/22 06:30:34;;;;;;;47.20;33.00;;;;;;;;;;5124707;27;20047;-77
2021/09/22 06:33:00;;;;;;;51.05;32.72;;;;;;;;;;5105524;27;20058;-77
2021/09/22 06:35:26;;;;;;;50.25;35.67;;;;;;;;;;5136324;27;20043;-76
2021/09/22 06:37:52;;;;;;;58.42;34.97;;;;;;;;;;5121824;27;20130;-77
2021/09/22 06:40:19;;;;;;;36.35;28.38;;;;;;;;;;5108781;27;20076;-76
2021/09/22 06:42:46;;;;;;;41.50;30.20;;;;;;;;;;5150026;27;20042;-77
2021/09/22 06:45:12;;;;;;;31.80;26.15;;;;;;;;;;5125047;27;20104;-77
2021/09/22 06:47:39;;;;;;;34.00;27.45;;;;;;;;;;5118204;27;20128;-77
2021/09/22 06:50:05;;;;;;;32.42;25.02;;;;;;;;;;5097053;27;20057;-77
2021/09/22 06:52:31;;;;;;;32.25;26.13;;;;;;;;;;5111264;27;20059;-77
2021/09/22 06:54:58;;;;;;;29.63;24.85;;;;;;;;;;5120521;27;20382;-77
2021/09/22 06:57:25;;;;;;;30.63;24.55;;;;;;;;;;5114559;27;20061;-78
2021/09/22 06:59:51;;;;;;;30.52;23.08;;;;;;;;;;5118300;27;20082;-78
2021/09/22 07:02:17;;;;;;;30.20;24.02;;;;;;;;;;5098104;27;20103;-77
2021/09/22 07:04:43;;;;;;;32.92;24.85;;;;;;;;;;5118545;27;20046;-77
2021/09/22 07:07:09;;;;;;;28.52;22.70;;;;;;;;;;5103018;27;20042;-77
2021/09/22 07:09:36;;;;;;;33.72;24.38;;;;;;;;;;5106199;27;20397;-77
2021/09/22 07:12:03;;;;;;;34.17;23.60;;;;;;;;;;5104718;27;20062;-77
2021/09/22 07:14:29;;;;;;;28.55;22.42;;;;;;;;;;5125855;27;20047;-77
2021/09/22 07:16:55;;;;;;;30.05;22.15;;;;;;;;;;5121148;27;20565;-76
2021/09/22 07:19:21;;;;;;;30.65;23.42;;;;;;;;;;5122846;27;20381;-77
2021/09/22 07:21:47;;;;;;;32.20;24.70;;;;;;;;;;5116562;27;20087;-77
2021/09/22 07:24:13;;;;;;;30.33;21.08;;;;;;;;;;5126040;27;20135;-77
2021/09/22 07:26:39;;;;;;;30.92;22.90;;;;;;;;;;5123839;27;20046;-78
2021/09/22 07:29:07;;;;;;;27.60;20.95;;;;;;;;;;5124735;27;20126;-77
2021/09/22 07:31:34;;;;;;;21.63;17.77;;;;;;;;;;5119427;27;20094;-77
2021/09/22 07:34:00;;;;;;;20.42;18.25;;;;;;;;;;5117289;27;20047;-77
2021/09/22 07:36:26;;;;;;;;;;;;;;;;;;5120063;27;20051;-76
2021/09/22 07:38:52;;;;;;;;;;;;;;;;;;5107224;27;20538;-77
2021/09/22 07:41:18;;;;;;;;;;;;;;;;;;5116181;27;20021;-77
2021/09/22 07:43:44;;;;;;;;;;;;;;;;;;5102011;27;19918;-79
2021/09/22 07:46:10;;;;;;;;;;;;;;;;;;5121316;27;20023;-83
2021/09/22 07:48:36;;;;;;;;;;;;;;;;;;5113098;27;19926;-83
2021/09/22 07:51:02;;;;;;;;;;;;;;;;;;5114682;27;19920;-85
2021/09/22 07:53:27;;;;;;;;;;;;;;;;;;5117857;27;19927;-86
2021/09/22 07:55:53;;;;;;;;;;;;;;;;;;5116792;27;20349;-83
2021/09/22 07:58:20;;;;;;;;;;;;;;;;;;5106706;28;20377;-88
2021/09/22 08:00:45;;;;;;;;;;;;;;;;;;5122786;27;19999;-84
2021/09/22 08:03:11;;;;;;;;;;;;;;;;;;5126588;27;20009;-90
2021/09/22 08:05:41;;;;;;;;;;;;;;;;;;5116895;27;19923;-83
2021/09/22 08:08:07;;;;;;;;;;;;;;;;;;5116842;27;19927;-75
2021/09/22 08:10:32;;;;;;;;;;;;;;;;;;5127336;27;20041;-80
2021/09/22 08:12:58;;;;;;;;;;;;;;;;;;5099872;27;19970;-80
2021/09/22 08:15:24;;;;;;;;;;;;;;;;;;5117227;27;19919;-81
2021/09/22 08:17:50;;;;;;;;;;;;;;;;;;5122153;27;19925;-85
2021/09/22 08:20:16;;;;;;;;;;;;;;;;;;5118519;27;20374;-83
2021/09/22 08:22:42;;;;;;;;;;;;;;;;;;5125212;27;19995;-82
2021/09/22 08:25:09;;;;;;;26.45;21.48;;;;;;;;;;5110496;27;19965;-81
2021/09/22 08:27:35;;;;;;;29.88;22.40;;;;;;;;;;5106294;28;20082;-79
2021/09/22 08:30:01;;;;;;;27.08;23.10;;;;;;;;;;5107289;27;20047;-76
2021/09/22 08:32:27;;;;;;;27.15;23.02;;;;;;;;;;5123458;27;20110;-79
2021/09/22 08:34:53;;;;;;;33.60;26.23;;;;;;;;;;5110923;27;20043;-78
2021/09/22 08:37:19;;;;;;;34.15;26.05;;;;;;;;;;5104080;27;20047;-81
2021/09/22 08:39:45;;;;;;;30.40;24.27;;;;;;;;;;5104084;27;20047;-83
2021/09/22 08:42:11;;;;;;;36.40;27.33;;;;;;;;;;5100271;27;20043;-81
2021/09/22 08:44:38;;;;;;;33.25;27.70;;;;;;;;;;5136099;27;20474;-80
2021/09/22 08:47:04;;;;;;;33.50;27.17;;;;;;;;;;5107996;27;20045;-79
2021/09/22 08:49:30;;;;;;;35.00;26.33;;;;;;;;;;5110716;27;20138;-80
2021/09/22 08:51:56;;;;;;;37.53;27.13;;;;;;;;;;5133430;27;20035;-80
2021/09/22 08:54:22;;;;;;;40.03;28.58;;;;;;;;;;5118231;27;20473;-81
2021/09/22 08:56:48;;;;;;;38.17;28.52;;;;;;;;;;5099765;27;20039;-80
2021/09/22 08:59:15;;;;;;;33.85;26.67;;;;;;;;;;5116785;27;20066;-80
2021/09/22 09:01:43;;;;;;;37.45;28.52;;;;;;;;;;5116596;27;20042;-79
2021/09/22 09:04:13;;;;;;;34.92;28.08;;;;;;;;;;5111992;27;20126;-87
2021/09/22 09:06:39;;;;;;;37.92;30.00;;;;;;;;;;5118655;27;20442;-83
2021/09/22 09:09:06;;;;;;;39.03;29.45;;;;;;;;;;5112379;27;20039;-82
2021/09/22 09:11:37;;;;;;;38.30;30.35;;;;;;;;;;5117409;27;20062;-81
2021/09/22 09:14:07;;;;;;;35.08;29.35;;;;;;;;;;5117947;27;20054;-82
2021/09/22 09:16:36;;;;;;;39.40;30.20;;;;;;;;;;5133539;27;20121;-81
2021/09/22 09:19:10;;;;;;;40.47;30.48;;;;;;;;;;5130097;27;20066;-82
2021/09/22 09:21:36;;;;;;;;;;;;;;;;;;5133149;27;20083;-83
2021/09/22 09:24:01;;;;;;;;;;;;;;;;;;5111755;27;20015;-84
2021/09/22 09:26:27;;;;;;;;;;;;;;;;;;5117448;27;19923;-82
2021/09/22 09:28:53;;;;;;;;;;;;;;;;;;5121169;27;19919;-79
2021/09/22 09:31:19;;;;;;;;;;;;;;;;;;5124913;27;20026;-82
2021/09/22 09:33:45;;;;;;;;;;;;;;;;;;5117154;27;20010;-81
2021/09/22 09:36:11;;;;;;;;;;;;;;;;;;5135826;27;19923;-82
2021/09/22 09:38:37;;;;;;;;;;;;;;;;;;5115338;27;19919;-76
2021/09/22 09:41:03;;;;;;;;;;;;;;;;;;5120660;27;19926;-79
2021/09/22 09:43:29;;;;;;;;;;;;;;;;;;5115599;27;19926;-79
2021/09/22 09:45:55;;;;;;;;;;;;;;;;;;5107697;27;19919;-81
2021/09/22 09:48:21;;;;;;;;;;;;;;;;;;5112868;27;19919;-84
2021/09/22 09:50:47;;;;;;;;;;;;;;;;;;5118588;27;19927;-83
2021/09/22 09:53:13;;;;;;;;;;;;;;;;;;5132475;27;19919;-77
2021/09/22 09:55:40;;;;;;;46.00;34.17;;;;;;;;;;5124037;27;19977;-79
2021/09/22 09:58:07;;;;;;;44.47;32.22;;;;;;;;;;5108677;27;20416;-76
2021/09/22 10:00:39;;;;;;;43.25;30.90;;;;;;;;;;5115988;27;20047;-80
2021/09/22 10:03:08;;;;;;;40.30;30.00;;;;;;;;;;5118154;27;20042;-76
2021/09/22 10:05:34;;;;;;;39.35;29.48;;;;;;;;;;5121648;27;20043;-78
2021/09/22 10:08:01;;;;;;;46.25;31.08;;;;;;;;;;5126934;27;20039;-83
2021/09/22 10:10:27;;;;;;;41.50;32.13;;;;;;;;;;5101334;27;20394;-83
2021/09/22 10:12:53;;;;;;;36.10;28.83;;;;;;;;;;5104091;27;20054;-83
2021/09/22 10:15:20;;;;;;;37.97;28.95;;;;;;;;;;5128890;27;20075;-79
2021/09/22 10:17:46;;;;;;;42.90;31.10;;;;;;;;;;5122442;27;20054;-81
2021/09/22 10:20:12;;;;;;;37.83;28.70;;;;;;;;;;5111476;27;20046;-84
2021/09/22 10:22:38;;;;;;;37.55;27.23;;;;;;;;;;5113724;27;20078;-81
2021/09/22 10:25:05;;;;;;;37.83;27.17;;;;;;;;;;5118784;27;20043;-84
2021/09/22 10:27:32;;;;;;;37.15;28.10;;;;;;;;;;5133311;27;20051;-85
2021/09/22 10:30:00;;;;;;;40.90;28.15;;;;;;;;;;5104125;27;20081;-88
2021/09/22 10:32:35;;;;;;;41.00;28.02;;;;;;;;;;5123809;27;20133;-81
2021/09/22 10:35:21;;;;;;;41.53;30.45;;;;;;;;;;5109893;27;20039;-80
2021/09/22 10:37:48;;;;;;;35.20;28.50;;;;;;;;;;5127631;27;20054;-82
2021/09/22 10:40:16;;;;;;;39.42;28.73;;;;;;;;;;5119153;27;20069;-79
2021/09/22 10:42:44;;;;;;;35.22;26.20;;;;;;;;;;5121786;27;20039;-81
2021/09/22 10:45:22;;;;;;;35.15;25.00;;;;;;;;;;5090705;27;20043;-80
2021/09/22 10:47:49;;;;;;;28.20;22.15;;;;;;;;;;5114685;27;20111;-82
2021/09/22 10:50:34;;;;;;;25.38;20.25;;;;;;;;;;5113970;27;20401;-82
2021/09/22 10:53:00;;;;;;;;;;;;;;;;;;5118956;27;20065;-80
2021/09/22 10:55:28;;;;;;;;;;;;;;;;;;5120090;27;20365;-80
2021/09/22 10:57:54;;;;;;;;;;;;;;;;;;5128036;27;19983;-81
2021/09/22 11:00:20;;;;;;;;;;;;;;;;;;5126090;27;20373;-79
2021/09/22 11:02:46;;;;;;;;;;;;;;;;;;5131607;27;20373;-81
2021/09/22 11:05:13;;;;;;;;;;;;;;;;;;5120066;27;19920;-77
2021/09/22 11:07:39;;;;;;;;;;;;;;;;;;5119993;27;20327;-86
2021/09/22 11:10:05;;;;;;;;;;;;;;;;;;5106729;27;19919;-76
2021/09/22 11:12:33;;;;;;;;;;;;;;;;;;5119891;27;20418;-76
2021/09/22 11:14:59;;;;;;;;;;;;;;;;;;5104780;28;19946;-76
2021/09/22 11:17:25;;;;;;;;;;;;;;;;;;5107879;28;19924;-76
2021/09/22 11:19:51;;;;;;;;;;;;;;;;;;5115385;28;19923;-76
2021/09/22 11:22:17;;;;;;;;;;;;;;;;;;5107658;27;19976;-76
2021/09/22 11:24:43;;;;;;;;;;;;;;;;;;5128260;27;20945;-76
2021/09/22 11:27:09;;;;;;;;;;;;;;;;;;5120855;27;19923;-76
2021/09/22 11:29:41;;;;;;;14.95;8.05;;;;;;;;;;5127933;28;20351;-76
2021/09/22 11:32:08;;;;;;;12.90;7.63;;;;;;;;;;5121970;27;20035;-77
2021/09/22 11:34:37;;;;;;;;;;;;;;;;;;5104264;28;20053;-76
2021/09/22 11:37:04;;;;;;;13.00;7.32;;;;;;;;;;5117502;28;19923;-76
2021/09/22 11:39:30;;;;;;;;;;;;;;;;;;5119692;28;20086;-76
2021/09/22 11:41:56;;;;;;;;;;;;;;;;;;5096203;28;19973;-76
2021/09/22 11:44:22;;;;;;;;;;;;;;;;;;5128778;28;19919;-76
2021/09/22 11:46:48;;;;;;;;;;;;;;;;;;5123064;28;19924;-75
2021/09/22 11:49:14;;;;;;;;;;;;;;;;;;5119918;28;19919;-75
2021/09/22 11:51:40;;;;;;;;;;;;;;;;;;5128085;28;19923;-75
2021/09/22 11:54:06;;;;;;;;;;;;;;;;;;5113867;28;20350;-75
2021/09/22 11:56:32;;;;;;;;;;;;;;;;;;5126225;28;19930;-76
2021/09/22 11:58:58;;;;;;;;;;;;;;;;;;5114347;28;19927;-75
2021/09/22 12:01:24;;;;;;;;;;;;;;;;;;5121536;28;19927;-76
2021/09/22 12:03:50;;;;;;;;;;;;;;;;;;5122062;27;19924;-76
2021/09/22 12:06:17;;;;;;;;;;;;;;;;;;5120725;27;19949;-76
2021/09/22 12:08:43;;;;;;;;;;;;;;;;;;5118303;27;19919;-76
2021/09/22 12:11:10;;;;;;;;;;;;;;;;;;5115656;27;19924;-76
2021/09/22 12:13:36;;;;;;;;;;;;;;;;;;5124439;27;19919;-77
2021/09/22 12:16:01;;;;;;;;;;;;;;;;;;5129440;27;19972;-78
2021/09/22 12:18:27;;;;;;;;;;;;;;;;;;5127790;27;20010;-78
2021/09/22 12:20:53;;;;;;;;;;;;;;;;;;5128614;27;19933;-76
2021/09/22 12:23:19;;;;;;;;;;;;;;;;;;5117448;27;19924;-78
2021/09/22 12:25:45;;;;;;;;;;;;;;;;;;5105497;27;19926;-76
2021/09/22 12:28:11;;;;;;;;;;;;;;;;;;5124074;27;19926;-78
2021/09/22 12:30:37;;;;;;;;;;;;;;;;;;5126197;27;20402;-77
2021/09/22 12:33:03;;;;;;;;;;;;;;;;;;5112980;27;20341;-78
2021/09/22 12:35:29;;;;;;;;;;;;;;;;;;5128165;27;19919;-78
2021/09/22 12:37:55;;;;;;;;;;;;;;;;;;5101570;28;20006;-78
2021/09/22 12:40:21;;;;;;;;;;;;;;;;;;5125381;27;19920;-76
2021/09/22 12:42:47;;;;;;;;;;;;;;;;;;5122976;27;19919;-78
2021/09/22 12:45:13;;;;;;;;;;;;;;;;;;5107627;27;20016;-78
2021/09/22 12:47:39;;;;;;;;;;;;;;;;;;5132823;27;20247;-78
2021/09/22 12:50:05;;;;;;;;;;;;;;;;;;5116860;27;19920;-77
2021/09/22 12:52:31;;;;;;;;;;;;;;;;;;5113575;27;19919;-78
2021/09/22 12:54:57;;;;;;;;;;;;;;;;;;5115260;27;19920;-78
2021/09/22 12:57:22;;;;;;;;;;;;;;;;;;5123742;27;19966;-78
2021/09/22 12:59:48;;;;;;;;;;;;;;;;;;5132793;27;19948;-78
2021/09/22 13:02:14;;;;;;;;;;;;;;;;;;5127304;27;19934;-78
2021/09/22 13:04:40;;;;;;;;;;;;;;;;;;5121433;27;19923;-78
2021/09/22 13:07:07;;;;;;;;;;;;;;;;;;5133372;27;19919;-78
2021/09/22 13:09:33;;;;;;;;;;;;;;;;;;5115068;27;19927;-78
2021/09/22 13:11:59;;;;;;;;;;;;;;;;;;5129240;27;20282;-77
2021/09/22 13:14:25;;;;;;;;;;;;;;;;;;5122801;27;19970;-78
2021/09/22 13:16:55;;;;;;;;;;;;;;;;;;5123558;27;20366;-76
2021/09/22 13:19:21;;;;;;;;;;;;;;;;;;5127473;27;19920;-78
2021/09/22 13:21:47;;;;;;;;;;;;;;;;;;5126662;27;20014;-77
2021/09/22 13:24:13;;;;;;;;;;;;;;;;;;5113059;27;19924;-77
2021/09/22 13:26:39;;;;;;;;;;;;;;;;;;5120332;27;19926;-77
2021/09/22 13:29:05;;;;;;;;;;;;;;;;;;5097085;28;20413;-77
2021/09/22 13:31:31;;;;;;;;;;;;;;;;;;5119551;27;19920;-77
2021/09/22 13:33:56;;;;;;;;;;;;;;;;;;5126351;27;19919;-78
2021/09/22 13:36:25;;;;;;;;;;;;;;;;;;5129880;27;20357;-79
2021/09/22 13:38:51;;;;;;;;;;;;;;;;;;5116892;27;19923;-78
2021/09/22 13:41:17;;;;;;;;;;;;;;;;;;5114995;27;19922;-81
2021/09/22 13:43:43;;;;;;;;;;;;;;;;;;5117460;27;19919;-80
2021/09/22 13:46:08;;;;;;;;;;;;;;;;;;5122496;27;19923;-82
2021/09/22 13:48:34;;;;;;;;;;;;;;;;;;5129529;27;20014;-82
2021/09/22 13:51:00;;;;;;;;;;;;;;;;;;5130802;27;19923;-82
2021/09/22 13:53:26;;;;;;;;;;;;;;;;;;5101981;27;19924;-82
2021/09/22 13:55:52;;;;;;;;;;;;;;;;;;5098713;27;19928;-81
2021/09/22 13:58:18;;;;;;;;;;;;;;;;;;5107751;27;20281;-87
2021/09/22 14:00:44;;;;;;;;;;;;;;;;;;5111962;27;19941;-87
2021/09/22 14:03:11;;;;;;;;;;;;;;;;;;5101126;28;19924;-85
2021/09/22 14:05:37;;;;;;;;;;;;;;;;;;5121558;27;19919;-82
2021/09/22 14:08:03;;;;;;;;;;;;;;;;;;5111204;27;19919;-80
2021/09/22 14:10:29;;;;;;;;;;;;;;;;;;5109415;27;20590;-79
2021/09/22 14:12:59;;;;;;;;;;;;;;;;;;5115416;27;19927;-80
2021/09/22 14:15:25;;;;;;;;;;;;;;;;;;5107191;27;20353;-77
2021/09/22 14:17:52;;;;;;;;;;;;;;;;;;5119615;27;19977;-76
2021/09/22 14:20:18;;;;;;;;;;;;;;;;;;5115029;27;20090;-77
2021/09/22 14:22:44;;;;;;;;;;;;;;;;;;5117330;27;19920;-76
2021/09/22 14:25:10;;;;;;;;;;;;;;;;;;5128767;27;19927;-76
2021/09/22 14:27:36;;;;;;;;;;;;;;;;;;5119622;27;19920;-77
2021/09/22 14:30:02;;;;;;;;;;;;;;;;;;5114025;27;19927;-75
2021/09/22 14:32:28;;;;;;;;;;;;;;;;;;5112501;27;19930;-76
2021/09/22 14:34:54;;;;;;;;;;;;;;;;;;5115525;27;19945;-76
2021/09/22 14:37:20;;;;;;;;;;;;;;;;;;5118526;27;19989;-76
2021/09/22 14:39:46;;;;;;;;;;;;;;;;;;5112548;27;19934;-76
2021/09/22 14:42:12;;;;;;;;;;;;;;;;;;5108119;27;19919;-76
2021/09/22 14:44:38;;;;;;;;;;;;;;;;;;5120080;27;19930;-76
2021/09/22 14:47:04;;;;;;;;;;;;;;;;;;5120128;27;19920;-76
2021/09/22 14:49:30;;;;;;;;;;;;;;;;;;5115932;27;19928;-75
2021/09/22 14:51:56;;;;;;;;;;;;;;;;;;5119157;27;19919;-77
2021/09/22 14:54:25;;;;;;;;;;;;;;;;;;5116521;27;20317;-77
2021/09/22 14:56:50;;;;;;;;;;;;;;;;;;5121538;27;19964;-79
2021/09/22 14:59:17;;;;;;;;;;;;;;;;;;5119335;27;19919;-75